sensor_id;sensor_type;location;lat;lon;timestamp;pressure;altitude;pressure_sealevel;temperature;humidity
6038;BME280;3047;42.600;23.470;2022-11-09T00:01:20;93602.16;;;11.96;100.00
6038;BME280;3047;42.600;23.470;2022-11-09T00:03:53;93608.09;;;11.95;100.00
6038;BME280;3047;42.600;23.470;2022-11-09T00:06:20;93603.81;;;11.97;100.00
6038;BME280;3047;42.600;23.470;2022-11-09T00:08:47;93606.22;;;12.02;100.00
6038;BME280;3047;42.600;23.470;2022-11-09T00:11:13;93597.78;;;12.01;100.00
6038;BME280;3047;42.600;23.470;2022-11-09T00:13:42;93603.03;;;11.95;100.00
6038;BME280;3047;42.600;23.470;2022-11-09T00:16:11;93611.47;;;11.96;100.00
6038;BME280;3047;42.600;23.470;2022-11-09T00:18:38;93606.28;;;11.99;100.00
6038;BME280;3047;42.600;23.470;2022-11-09T00:21:07;93616.31;;;12.03;100.00
6038;BME280;3047;42.600;23.470;2022-11-09T00:23:34;93612.00;;;12.07;100.00
6038;BME280;3047;42.600;23.470;2022-11-09T00:26:02;93609.75;;;11.96;100.00
6038;BME280;3047;42.600;23.470;2022-11-09T00:28:29;93610.53;;;11.98;100.00
6038;BME280;3047;42.600;23.470;2022-11-09T00:31:00;93609.75;;;11.96;100.00
6038;BME280;3047;42.600;23.470;2022-11-09T00:33:27;93604.69;;;11.96;100.00
6038;BME280;3047;42.600;23.470;2022-11-09T00:35:54;93612.16;;;12.01;100.00
6038;BME280;3047;42.600;23.470;2022-11-09T00:38:22;93596.03;;;12.05;100.00
6038;BME280;3047;42.600;23.470;2022-11-09T00:40:49;93604.69;;;11.96;100.00
6038;BME280;3047;42.600;23.470;2022-11-09T00:43:16;93576.13;;;11.91;100.00
6038;BME280;3047;42.600;23.470;2022-11-09T00:45:43;93590.28;;;11.98;100.00
6038;BME280;3047;42.600;23.470;2022-11-09T00:48:12;93591.50;;;11.83;100.00
6038;BME280;3047;42.600;23.470;2022-11-09T00:50:38;93579.63;;;11.85;100.00
6038;BME280;3047;42.600;23.470;2022-11-09T00:53:05;93587.50;;;11.73;100.00
6038;BME280;3047;42.600;23.470;2022-11-09T00:55:33;93590.75;;;11.78;100.00
6038;BME280;3047;42.600;23.470;2022-11-09T00:58:00;93584.16;;;11.73;100.00
6038;BME280;3047;42.600;23.470;2022-11-09T01:00:27;93591.03;;;11.66;100.00
6038;BME280;3047;42.600;23.470;2022-11-09T01:02:53;93584.06;;;11.76;100.00
6038;BME280;3047;42.600;23.470;2022-11-09T01:05:20;93584.72;;;11.82;100.00
6038;BME280;3047;42.600;23.470;2022-11-09T01:07:47;93538.97;;;11.59;100.00
6038;BME280;3047;42.600;23.470;2022-11-09T01:10:14;93591.41;;;11.88;100.00
6038;BME280;3047;42.600;23.470;2022-11-09T01:12:42;93591.31;;;11.91;100.00
6038;BME280;3047;42.600;23.470;2022-11-09T01:15:09;93593.63;;;11.99;100.00
6038;BME280;3047;42.600;23.470;2022-11-09T01:17:36;93593.63;;;11.99;100.00
6038;BME280;3047;42.600;23.470;2022-11-09T01:20:03;93561.25;;;11.77;100.00
6038;BME280;3047;42.600;23.470;2022-11-09T01:22:30;93590.25;;;12.00;100.00
6038;BME280;3047;42.600;23.470;2022-11-09T01:24:57;93591.84;;;12.02;100.00
6038;BME280;3047;42.600;23.470;2022-11-09T01:27:23;93584.19;;;12.05;100.00
6038;BME280;3047;42.600;23.470;2022-11-09T01:29:51;93490.13;;;11.55;100.00
6038;BME280;3047;42.600;23.470;2022-11-09T01:32:18;93590.97;;;12.05;100.00
6038;BME280;3047;42.600;23.470;2022-11-09T01:34:45;93587.41;;;12.12;100.00
6038;BME280;3047;42.600;23.470;2022-11-09T01:37:12;93588.03;;;12.20;100.00
6038;BME280;3047;42.600;23.470;2022-11-09T01:39:38;93583.81;;;12.19;100.00
6038;BME280;3047;42.600;23.470;2022-11-09T01:42:05;93588.03;;;12.20;100.00
6038;BME280;3047;42.600;23.470;2022-11-09T01:44:34;93587.97;;;12.22;100.00
6038;BME280;3047;42.600;23.470;2022-11-09T01:47:06;93581.19;;;12.24;100.00
6038;BME280;3047;42.600;23.470;2022-11-09T01:49:39;93591.31;;;12.24;100.00
6038;BME280;3047;42.600;23.470;2022-11-09T01:52:11;93574.63;;;12.15;100.00
6038;BME280;3047;42.600;23.470;2022-11-09T01:54:43;93524.88;;;11.83;100.00
6038;BME280;3047;42.600;23.470;2022-11-09T01:57:15;93590.47;;;12.23;100.00
6038;BME280;3047;42.600;23.470;2022-11-09T01:59:49;93585.38;;;12.23;100.00
6038;BME280;3047;42.600;23.470;2022-11-09T02:02:18;93592.13;;;12.24;100.00
6038;BME280;3047;42.600;23.470;2022-11-09T02:04:49;93582.09;;;12.21;100.00
6038;BME280;3047;42.600;23.470;2022-11-09T02:07:17;93586.13;;;12.28;100.00
6038;BME280;3047;42.600;23.470;2022-11-09T02:09:49;93591.25;;;12.25;100.00
6038;BME280;3047;42.600;23.470;2022-11-09T02:12:18;93579.69;;;12.15;100.00
6038;BME280;3047;42.600;23.470;2022-11-09T02:14:48;93593.03;;;12.22;100.00
6038;BME280;3047;42.600;23.470;2022-11-09T02:17:18;93596.28;;;12.27;100.00
6038;BME280;3047;42.600;23.470;2022-11-09T02:19:45;93595.75;;;12.16;100.00
6038;BME280;3047;42.600;23.470;2022-11-09T02:22:13;93593.22;;;12.16;100.00
6038;BME280;3047;42.600;23.470;2022-11-09T02:24:40;93601.34;;;11.94;100.00
6038;BME280;3047;42.600;23.470;2022-11-09T02:27:07;93595.34;;;11.98;100.00
6038;BME280;3047;42.600;23.470;2022-11-09T02:29:36;93597.22;;;11.90;100.00
6038;BME280;3047;42.600;23.470;2022-11-09T02:32:07;93596.63;;;11.80;100.00
6038;BME280;3047;42.600;23.470;2022-11-09T02:34:35;93599.06;;;11.85;100.00
6038;BME280;3047;42.600;23.470;2022-11-09T02:37:02;93601.72;;;11.79;100.00
6038;BME280;3047;42.600;23.470;2022-11-09T02:39:30;93591.34;;;11.54;100.00
6038;BME280;3047;42.600;23.470;2022-11-09T02:41:59;93601.34;;;11.60;100.00
6038;BME280;3047;42.600;23.470;2022-11-09T02:44:29;93589.38;;;11.31;100.00
6038;BME280;3047;42.600;23.470;2022-11-09T02:46:58;93600.75;;;11.49;100.00
6038;BME280;3047;42.600;23.470;2022-11-09T02:49:25;93604.66;;;11.26;100.00
6038;BME280;3047;42.600;23.470;2022-11-09T02:51:51;93597.81;;;11.30;100.00
6038;BME280;3047;42.600;23.470;2022-11-09T02:54:18;93604.63;;;11.28;100.00
6038;BME280;3047;42.600;23.470;2022-11-09T02:56:46;93603.06;;;11.22;100.00
6038;BME280;3047;42.600;23.470;2022-11-09T02:59:13;93598.25;;;11.10;100.00
6038;BME280;3047;42.600;23.470;2022-11-09T03:01:40;93606.06;;;11.01;100.00
6038;BME280;3047;42.600;23.470;2022-11-09T03:04:07;93599.41;;;10.97;100.00
6038;BME280;3047;42.600;23.470;2022-11-09T03:06:33;93588.16;;;10.71;100.00
6038;BME280;3047;42.600;23.470;2022-11-09T03:09:00;93605.63;;;10.82;100.00
6038;BME280;3047;42.600;23.470;2022-11-09T03:11:27;93591.47;;;10.73;100.00
6038;BME280;3047;42.600;23.470;2022-11-09T03:13:56;93609.34;;;10.66;100.00
6038;BME280;3047;42.600;23.470;2022-11-09T03:16:23;93608.56;;;10.62;100.00
6038;BME280;3047;42.600;23.470;2022-11-09T03:18:50;93608.47;;;10.65;100.00
6038;BME280;3047;42.600;23.470;2022-11-09T03:21:17;93602.69;;;10.61;100.00
6038;BME280;3047;42.600;23.470;2022-11-09T03:23:46;93595.41;;;10.46;100.00
6038;BME280;3047;42.600;23.470;2022-11-09T03:26:13;93607.84;;;10.55;100.00
6038;BME280;3047;42.600;23.470;2022-11-09T03:28:40;93594.34;;;10.58;100.00
6038;BME280;3047;42.600;23.470;2022-11-09T03:31:08;93605.13;;;10.64;100.00
6038;BME280;3047;42.600;23.470;2022-11-09T03:33:35;93580.22;;;10.48;100.00
6038;BME280;3047;42.600;23.470;2022-11-09T03:36:02;93604.28;;;10.66;100.00
6038;BME280;3047;42.600;23.470;2022-11-09T03:38:29;93571.09;;;10.42;100.00
6038;BME280;3047;42.600;23.470;2022-11-09T03:40:58;93612.72;;;10.64;100.00
6038;BME280;3047;42.600;23.470;2022-11-09T03:43:26;93583.03;;;10.34;100.00
6038;BME280;3047;42.600;23.470;2022-11-09T03:45:53;93613.44;;;10.29;100.00
6038;BME280;3047;42.600;23.470;2022-11-09T03:48:21;93610.94;;;10.26;100.00
6038;BME280;3047;42.600;23.470;2022-11-09T03:50:48;93609.50;;;10.13;100.00
6038;BME280;3047;42.600;23.470;2022-11-09T03:53:15;93616.97;;;10.16;100.00
6038;BME280;3047;42.600;23.470;2022-11-09T03:55:41;93611.72;;;10.28;100.00
6038;BME280;3047;42.600;23.470;2022-11-09T03:58:10;93614.25;;;10.28;100.00
6038;BME280;3047;42.600;23.470;2022-11-09T04:00:37;93616.78;;;10.30;100.00
6038;BME280;3047;42.600;23.470;2022-11-09T04:03:04;93621.13;;;10.20;100.00
6038;BME280;3047;42.600;23.470;2022-11-09T04:05:32;93622.84;;;10.16;100.00
6038;BME280;3047;42.600;23.470;2022-11-09T04:07:59;93613.75;;;10.08;100.00
6038;BME280;3047;42.600;23.470;2022-11-09T04:10:26;93606.53;;;9.89;100.00
6038;BME280;3047;42.600;23.470;2022-11-09T04:12:53;93582.09;;;9.91;100.00
6038;BME280;3047;42.600;23.470;2022-11-09T04:15:20;93576.09;;;9.99;100.00
6038;BME280;3047;42.600;23.470;2022-11-09T04:17:53;93609.53;;;10.10;100.00
6038;BME280;3047;42.600;23.470;2022-11-09T04:20:20;93618.94;;;10.02;100.00
6038;BME280;3047;42.600;23.470;2022-11-09T04:22:54;93611.19;;;10.11;100.00
6038;BME280;3047;42.600;23.470;2022-11-09T04:25:21;93607.66;;;10.21;100.00
6038;BME280;3047;42.600;23.470;2022-11-09T04:27:53;93525.34;;;9.69;100.00
6038;BME280;3047;42.600;23.470;2022-11-09T04:30:20;93609.50;;;10.13;100.00
6038;BME280;3047;42.600;23.470;2022-11-09T04:32:46;93580.41;;;9.92;100.00
6038;BME280;3047;42.600;23.470;2022-11-09T04:35:13;93609.75;;;9.98;100.00
6038;BME280;3047;42.600;23.470;2022-11-09T04:37:40;93609.75;;;9.98;100.00
6038;BME280;3047;42.600;23.470;2022-11-09T04:40:09;93574.78;;;9.78;100.00
6038;BME280;3047;42.600;23.470;2022-11-09T04:42:36;93616.47;;;9.99;100.00
6038;BME280;3047;42.600;23.470;2022-11-09T04:45:04;93610.69;;;9.94;100.00
6038;BME280;3047;42.600;23.470;2022-11-09T04:47:31;93603.06;;;9.97;100.00
6038;BME280;3047;42.600;23.470;2022-11-09T04:49:58;93605.63;;;9.94;100.00
6038;BME280;3047;42.600;23.470;2022-11-09T04:52:24;93609.69;;;10.02;100.00
6038;BME280;3047;42.600;23.470;2022-11-09T04:54:51;93605.53;;;9.98;100.00
6038;BME280;3047;42.600;23.470;2022-11-09T04:57:19;93612.75;;;10.16;100.00
6038;BME280;3047;42.600;23.470;2022-11-09T04:59:46;93616.16;;;10.15;100.00
6038;BME280;3047;42.600;23.470;2022-11-09T05:02:15;93609.75;;;9.98;100.00
6038;BME280;3047;42.600;23.470;2022-11-09T05:04:45;93626.66;;;9.94;100.00
6038;BME280;3047;42.600;23.470;2022-11-09T05:07:12;93628.22;;;10.00;100.00
6038;BME280;3047;42.600;23.470;2022-11-09T05:09:39;93638.44;;;9.94;100.00
6038;BME280;3047;42.600;23.470;2022-11-09T05:33:36;93647.25;;;9.70;100.00
6038;BME280;3047;42.600;23.470;2022-11-09T05:36:04;93650.59;;;9.70;100.00
6038;BME280;3047;42.600;23.470;2022-11-09T05:38:31;93653.91;;;9.72;100.00
6038;BME280;3047;42.600;23.470;2022-11-09T05:40:57;93654.66;;;9.80;100.00
6038;BME280;3047;42.600;23.470;2022-11-09T05:43:24;93652.56;;;9.53;100.00
6038;BME280;3047;42.600;23.470;2022-11-09T05:45:51;93647.63;;;9.44;100.00
6038;BME280;3047;42.600;23.470;2022-11-09T05:48:18;93655.13;;;9.50;100.00
6038;BME280;3047;42.600;23.470;2022-11-09T05:50:46;93651.19;;;9.32;100.00
6038;BME280;3047;42.600;23.470;2022-11-09T05:53:12;93657.66;;;9.48;100.00
6038;BME280;3047;42.600;23.470;2022-11-09T05:55:39;93660.75;;;9.64;100.00
6038;BME280;3047;42.600;23.470;2022-11-09T05:58:06;93654.84;;;9.66;100.00
6038;BME280;3047;42.600;23.470;2022-11-09T06:00:34;93677.34;;;9.80;100.00
6038;BME280;3047;42.600;23.470;2022-11-09T06:03:01;93658.81;;;9.80;100.00
6038;BME280;3047;42.600;23.470;2022-11-09T06:05:28;93663.94;;;9.75;100.00
6038;BME280;3047;42.600;23.470;2022-11-09T06:08:00;93676.13;;;10.03;100.00
6038;BME280;3047;42.600;23.470;2022-11-09T06:10:27;93676.03;;;10.09;100.00
6038;BME280;3047;42.600;23.470;2022-11-09T06:12:54;93674.22;;;10.17;100.00
6038;BME280;3047;42.600;23.470;2022-11-09T06:15:21;93674.84;;;10.30;100.00
6038;BME280;3047;42.600;23.470;2022-11-09T06:17:50;93679.63;;;10.44;100.00
6038;BME280;3047;42.600;23.470;2022-11-09T06:20:17;93674.41;;;10.53;100.00
6038;BME280;3047;42.600;23.470;2022-11-09T06:22:44;93685.19;;;10.61;100.00
6038;BME280;3047;42.600;23.470;2022-11-09T06:25:12;93680.00;;;10.70;100.00
6038;BME280;3047;42.600;23.470;2022-11-09T06:27:39;93687.50;;;10.73;100.00
6038;BME280;3047;42.600;23.470;2022-11-09T06:30:06;93682.47;;;10.72;100.00
6038;BME280;3047;42.600;23.470;2022-11-09T06:32:33;93675.47;;;10.84;100.00
6038;BME280;3047;42.600;23.470;2022-11-09T06:35:00;93680.28;;;10.97;100.00
6038;BME280;3047;42.600;23.470;2022-11-09T06:37:27;93685.03;;;11.12;100.00
6038;BME280;3047;42.600;23.470;2022-11-09T06:39:54;93689.63;;;11.35;100.00
6038;BME280;3047;42.600;23.470;2022-11-09T06:42:22;93685.69;;;11.59;100.00
6038;BME280;3047;42.600;23.470;2022-11-09T06:44:48;93662.72;;;11.68;100.00
6038;BME280;3047;42.600;23.470;2022-11-09T06:47:15;93689.53;;;12.11;100.00
6038;BME280;3047;42.600;23.470;2022-11-09T06:49:42;93683.63;;;12.45;100.00
6038;BME280;3047;42.600;23.470;2022-11-09T06:52:09;93685.69;;;12.94;100.00
6038;BME280;3047;42.600;23.470;2022-11-09T06:54:35;93619.34;;;13.08;100.00
6038;BME280;3047;42.600;23.470;2022-11-09T06:57:02;93693.78;;;13.93;100.00
6038;BME280;3047;42.600;23.470;2022-11-09T06:59:30;93693.53;;;14.27;98.09
6038;BME280;3047;42.600;23.470;2022-11-09T07:01:57;93691.28;;;14.69;95.61
6038;BME280;3047;42.600;23.470;2022-11-09T07:04:24;93687.88;;;14.94;93.34
6038;BME280;3047;42.600;23.470;2022-11-09T07:06:50;93700.91;;;14.84;92.36
6038;BME280;3047;42.600;23.470;2022-11-09T07:09:17;93699.38;;;14.55;92.65
6038;BME280;3047;42.600;23.470;2022-11-09T07:11:45;93702.91;;;14.25;93.79
6038;BME280;3047;42.600;23.470;2022-11-09T07:14:13;93695.97;;;14.03;95.52
6038;BME280;3047;42.600;23.470;2022-11-09T07:16:41;93692.69;;;14.00;96.82
6038;BME280;3047;42.600;23.470;2022-11-09T07:19:08;93689.44;;;13.96;97.06
6038;BME280;3047;42.600;23.470;2022-11-09T07:21:35;93691.06;;;13.99;97.41
6038;BME280;3047;42.600;23.470;2022-11-09T07:24:02;93680.66;;;14.06;97.56
6038;BME280;3047;42.600;23.470;2022-11-09T07:26:29;93684.22;;;14.26;97.13
6038;BME280;3047;42.600;23.470;2022-11-09T07:28:55;93685.16;;;14.50;96.49
6038;BME280;3047;42.600;23.470;2022-11-09T07:31:22;93687.84;;;14.70;94.89
6038;BME280;3047;42.600;23.470;2022-11-09T07:33:54;93680.41;;;14.89;94.13
6038;BME280;3047;42.600;23.470;2022-11-09T07:36:22;93676.03;;;14.93;93.24
6038;BME280;3047;42.600;23.470;2022-11-09T07:38:49;93679.91;;;14.79;93.54
6038;BME280;3047;42.600;23.470;2022-11-09T07:41:16;93685.84;;;14.55;95.53
6038;BME280;3047;42.600;23.470;2022-11-09T07:43:42;93691.47;;;14.12;96.57
6038;BME280;3047;42.600;23.470;2022-11-09T07:46:09;93668.09;;;13.75;98.28
6038;BME280;3047;42.600;23.470;2022-11-09T07:48:36;93681.50;;;13.79;99.19
6038;BME280;3047;42.600;23.470;2022-11-09T07:51:04;93680.91;;;13.71;100.00
6038;BME280;3047;42.600;23.470;2022-11-09T07:53:31;93676.31;;;13.55;100.00
6038;BME280;3047;42.600;23.470;2022-11-09T07:56:00;93675.56;;;13.52;100.00
6038;BME280;3047;42.600;23.470;2022-11-09T07:58:27;93676.75;;;13.42;100.00
6038;BME280;3047;42.600;23.470;2022-11-09T08:00:54;93682.63;;;13.42;100.00
6038;BME280;3047;42.600;23.470;2022-11-09T08:03:22;93682.72;;;13.39;100.00
6038;BME280;3047;42.600;23.470;2022-11-09T08:05:49;93673.69;;;13.30;100.00
6038;BME280;3047;42.600;23.470;2022-11-09T08:08:17;93682.25;;;13.26;100.00
6038;BME280;3047;42.600;23.470;2022-11-09T08:10:44;93686.63;;;13.20;100.00
6038;BME280;3047;42.600;23.470;2022-11-09T08:13:18;93686.63;;;13.20;100.00
6038;BME280;3047;42.600;23.470;2022-11-09T08:15:45;93682.00;;;13.04;100.00
6038;BME280;3047;42.600;23.470;2022-11-09T08:18:13;93682.84;;;13.05;100.00
6038;BME280;3047;42.600;23.470;2022-11-09T08:20:40;93676.75;;;13.10;100.00
6038;BME280;3047;42.600;23.470;2022-11-09T08:23:09;93659.50;;;12.94;100.00
6038;BME280;3047;42.600;23.470;2022-11-09T08:25:38;93682.25;;;12.95;100.00
6038;BME280;3047;42.600;23.470;2022-11-09T08:28:05;93680.53;;;12.97;100.00
6038;BME280;3047;42.600;23.470;2022-11-09T08:30:32;93674.66;;;12.95;100.00
6038;BME280;3047;42.600;23.470;2022-11-09T08:33:00;93674.56;;;12.98;100.00
6038;BME280;3047;42.600;23.470;2022-11-09T08:35:28;93686.38;;;12.99;100.00
6038;BME280;3047;42.600;23.470;2022-11-09T08:37:55;93683.91;;;12.96;100.00
6038;BME280;3047;42.600;23.470;2022-11-09T08:40:25;93676.44;;;12.92;100.00
6038;BME280;3047;42.600;23.470;2022-11-09T08:42:53;93678.91;;;12.95;100.00
6038;BME280;3047;42.600;23.470;2022-11-09T08:45:20;93669.59;;;12.95;100.00
6038;BME280;3047;42.600;23.470;2022-11-09T08:47:47;93681.09;;;13.07;100.00
6038;BME280;3047;42.600;23.470;2022-11-09T08:50:14;93686.75;;;13.17;100.00
6038;BME280;3047;42.600;23.470;2022-11-09T08:52:41;93684.28;;;13.14;100.00
6038;BME280;3047;42.600;23.470;2022-11-09T08:55:08;93684.09;;;13.20;100.00
6038;BME280;3047;42.600;23.470;2022-11-09T08:57:35;93695.72;;;13.28;100.00
6038;BME280;3047;42.600;23.470;2022-11-09T09:00:05;93678.97;;;13.23;100.00
6038;BME280;3047;42.600;23.470;2022-11-09T09:02:32;93691.22;;;13.38;100.00
6038;BME280;3047;42.600;23.470;2022-11-09T09:04:59;93690.28;;;13.41;100.00
6038;BME280;3047;42.600;23.470;2022-11-09T09:07:26;93682.94;;;13.31;100.00
6038;BME280;3047;42.600;23.470;2022-11-09T09:09:52;93682.94;;;13.31;100.00
6038;BME280;3047;42.600;23.470;2022-11-09T09:12:19;93678.53;;;13.38;100.00
6038;BME280;3047;42.600;23.470;2022-11-09T09:14:46;93679.31;;;13.40;100.00
6038;BME280;3047;42.600;23.470;2022-11-09T09:17:14;93685.09;;;13.45;100.00
6038;BME280;3047;42.600;23.470;2022-11-09T09:19:41;93685.88;;;13.47;100.00
6038;BME280;3047;42.600;23.470;2022-11-09T09:22:07;93688.47;;;13.44;100.00
6038;BME280;3047;42.600;23.470;2022-11-09T09:24:34;93689.16;;;13.51;100.00
6038;BME280;3047;42.600;23.470;2022-11-09T09:27:01;93688.22;;;13.53;100.00
6038;BME280;3047;42.600;23.470;2022-11-09T09:29:28;93691.75;;;13.48;100.00
6038;BME280;3047;42.600;23.470;2022-11-09T09:31:55;93640.84;;;13.26;100.00
6038;BME280;3047;42.600;23.470;2022-11-09T09:34:23;93680.41;;;13.59;100.00
6038;BME280;3047;42.600;23.470;2022-11-09T09:36:51;93684.28;;;13.71;100.00
6038;BME280;3047;42.600;23.470;2022-11-09T09:39:18;93652.34;;;13.64;100.00
6038;BME280;3047;42.600;23.470;2022-11-09T09:41:48;93678.97;;;13.79;100.00
6038;BME280;3047;42.600;23.470;2022-11-09T09:44:24;93677.25;;;13.79;100.00
6038;BME280;3047;42.600;23.470;2022-11-09T09:46:54;93677.94;;;13.84;100.00
6038;BME280;3047;42.600;23.470;2022-11-09T09:49:28;93632.69;;;13.71;100.00
6038;BME280;3047;42.600;23.470;2022-11-09T09:52:00;93664.84;;;13.97;100.00
6038;BME280;3047;42.600;23.470;2022-11-09T09:54:32;93663.88;;;14.01;100.00
6038;BME280;3047;42.600;23.470;2022-11-09T09:57:00;93648.13;;;13.91;100.00
6038;BME280;3047;42.600;23.470;2022-11-09T09:59:32;93655.13;;;14.09;100.00
6038;BME280;3047;42.600;23.470;2022-11-09T10:02:00;93660.94;;;14.13;99.90
6038;BME280;3047;42.600;23.470;2022-11-09T10:04:34;93656.66;;;14.15;99.63
6038;BME280;3047;42.600;23.470;2022-11-09T10:07:09;93652.13;;;14.23;99.74
6038;BME280;3047;42.600;23.470;2022-11-09T10:09:58;93656.19;;;14.29;99.64
6038;BME280;3047;42.600;23.470;2022-11-09T10:12:37;93646.00;;;14.29;99.73
6038;BME280;3047;42.600;23.470;2022-11-09T10:15:14;93651.75;;;14.34;100.00
6038;BME280;3047;42.600;23.470;2022-11-09T10:17:52;93629.94;;;14.28;99.70
6038;BME280;3047;42.600;23.470;2022-11-09T10:20:33;93644.72;;;14.42;98.45
6038;BME280;3047;42.600;23.470;2022-11-09T10:23:19;93646.22;;;14.48;98.18
6038;BME280;3047;42.600;23.470;2022-11-09T10:25:54;93642.88;;;14.46;98.43
6038;BME280;3047;42.600;23.470;2022-11-09T10:28:28;93623.44;;;14.45;98.30
6038;BME280;3047;42.600;23.470;2022-11-09T10:30:56;93630.66;;;14.58;98.31
6038;BME280;3047;42.600;23.470;2022-11-09T10:33:24;93637.03;;;14.69;98.14
6038;BME280;3047;42.600;23.470;2022-11-09T10:35:59;93633.31;;;14.79;95.20
6038;BME280;3047;42.600;23.470;2022-11-09T10:38:31;93636.44;;;14.86;94.22
6038;BME280;3047;42.600;23.470;2022-11-09T10:41:05;93577.03;;;14.65;97.03
6038;BME280;3047;42.600;23.470;2022-11-09T10:43:36;93636.06;;;15.20;94.18
6038;BME280;3047;42.600;23.470;2022-11-09T10:46:05;93621.69;;;15.41;92.91
6038;BME280;3047;42.600;23.470;2022-11-09T10:48:34;93623.38;;;15.62;93.21
6038;BME280;3047;42.600;23.470;2022-11-09T10:51:04;93619.47;;;15.75;88.61
6038;BME280;3047;42.600;23.470;2022-11-09T10:53:32;93620.53;;;15.92;88.25
6038;BME280;3047;42.600;23.470;2022-11-09T10:56:10;93599.13;;;15.96;88.38
6038;BME280;3047;42.600;23.470;2022-11-09T10:58:44;93615.63;;;16.28;86.27
6038;BME280;3047;42.600;23.470;2022-11-09T11:01:14;93608.81;;;16.49;86.76
6038;BME280;3047;42.600;23.470;2022-11-09T11:03:42;93616.28;;;16.72;84.83
6038;BME280;3047;42.600;23.470;2022-11-09T11:06:15;93595.25;;;16.88;83.73
6038;BME280;3047;42.600;23.470;2022-11-09T11:08:43;93605.66;;;17.21;83.64
6038;BME280;3047;42.600;23.470;2022-11-09T11:11:26;93609.94;;;17.39;81.33
6038;BME280;3047;42.600;23.470;2022-11-09T11:14:10;93603.06;;;17.59;79.59
6038;BME280;3047;42.600;23.470;2022-11-09T11:16:39;93605.66;;;17.76;78.28
6038;BME280;3047;42.600;23.470;2022-11-09T11:19:25;93600.66;;;17.92;78.18
6038;BME280;3047;42.600;23.470;2022-11-09T11:22:16;93598.56;;;18.00;76.15
6038;BME280;3047;42.600;23.470;2022-11-09T11:24:52;93601.31;;;18.13;75.12
6038;BME280;3047;42.600;23.470;2022-11-09T11:27:24;93596.13;;;18.14;74.07
6038;BME280;3047;42.600;23.470;2022-11-09T11:29:57;93596.75;;;18.19;74.03
6038;BME280;3047;42.600;23.470;2022-11-09T11:32:25;93595.69;;;18.23;74.12
6038;BME280;3047;42.600;23.470;2022-11-09T11:34:52;93592.91;;;18.28;72.91
6038;BME280;3047;42.600;23.470;2022-11-09T11:37:28;93579.19;;;18.29;73.73
6038;BME280;3047;42.600;23.470;2022-11-09T11:40:02;93570.94;;;18.24;71.52
6038;BME280;3047;42.600;23.470;2022-11-09T11:42:40;93587.31;;;18.37;73.40
6038;BME280;3047;42.600;23.470;2022-11-09T11:45:15;93589.59;;;18.43;72.60
6038;BME280;3047;42.600;23.470;2022-11-09T11:47:49;93576.34;;;18.35;72.66
6038;BME280;3047;42.600;23.470;2022-11-09T11:50:30;93579.66;;;18.37;73.59
6038;BME280;3047;42.600;23.470;2022-11-09T11:53:18;93578.72;;;18.38;71.37
6038;BME280;3047;42.600;23.470;2022-11-09T11:56:01;93571.31;;;18.16;71.74
6038;BME280;3047;42.600;23.470;2022-11-09T11:58:46;93559.16;;;18.04;71.88
6038;BME280;3047;42.600;23.470;2022-11-09T12:01:32;93580.19;;;18.09;70.88
6038;BME280;3047;42.600;23.470;2022-11-09T12:04:11;93572.06;;;18.01;72.87
6038;BME280;3047;42.600;23.470;2022-11-09T12:06:53;93582.16;;;18.04;72.13
6038;BME280;3047;42.600;23.470;2022-11-09T12:09:36;93560.66;;;17.91;71.42
6038;BME280;3047;42.600;23.470;2022-11-09T12:12:24;93578.84;;;18.02;72.96
6038;BME280;3047;42.600;23.470;2022-11-09T12:15:05;93573.13;;;17.97;72.69
6038;BME280;3047;42.600;23.470;2022-11-09T12:17:48;93577.72;;;17.90;71.06
6038;BME280;3047;42.600;23.470;2022-11-09T12:20:27;93580.56;;;17.84;72.76
6038;BME280;3047;42.600;23.470;2022-11-09T12:23:07;93551.22;;;17.74;71.27
6038;BME280;3047;42.600;23.470;2022-11-09T12:25:47;93573.59;;;17.88;71.70
6038;BME280;3047;42.600;23.470;2022-11-09T12:28:27;93547.59;;;17.79;70.60
6038;BME280;3047;42.600;23.470;2022-11-09T12:31:04;93573.50;;;17.89;71.32
6038;BME280;3047;42.600;23.470;2022-11-09T12:33:44;93563.97;;;17.93;72.17
6038;BME280;3047;42.600;23.470;2022-11-09T12:36:15;93564.50;;;17.99;71.62
6038;BME280;3047;42.600;23.470;2022-11-09T12:38:53;93572.22;;;17.98;71.51
6038;BME280;3047;42.600;23.470;2022-11-09T12:41:29;93563.88;;;17.94;71.45
6038;BME280;3047;42.600;23.470;2022-11-09T12:44:00;93561.28;;;17.60;71.63
6038;BME280;3047;42.600;23.470;2022-11-09T12:46:33;93570.38;;;17.65;71.43
6038;BME280;3047;42.600;23.470;2022-11-09T12:49:03;93545.28;;;17.56;70.67
6038;BME280;3047;42.600;23.470;2022-11-09T12:51:30;93554.16;;;17.66;71.35
6038;BME280;3047;42.600;23.470;2022-11-09T12:53:59;93561.16;;;17.63;72.41
6038;BME280;3047;42.600;23.470;2022-11-09T12:56:31;93558.31;;;17.50;73.82
6038;BME280;3047;42.600;23.470;2022-11-09T12:59:33;93560.41;;;17.42;75.59
6038;BME280;3047;42.600;23.470;2022-11-09T13:02:00;93532.44;;;17.21;74.28
6038;BME280;3047;42.600;23.470;2022-11-09T13:04:28;93559.06;;;17.35;74.51
6038;BME280;3047;42.600;23.470;2022-11-09T13:10:00;93561.72;;;17.14;75.58
6038;BME280;3047;42.600;23.470;2022-11-09T13:12:36;93530.97;;;16.79;76.06
6038;BME280;3047;42.600;23.470;2022-11-09T13:15:25;93554.41;;;16.88;76.54
6038;BME280;3047;42.600;23.470;2022-11-09T13:17:57;93510.53;;;16.42;76.86
6038;BME280;3047;42.600;23.470;2022-11-09T13:20:40;93551.34;;;16.61;77.16
6038;BME280;3047;42.600;23.470;2022-11-09T13:23:31;93547.19;;;16.39;78.47
6038;BME280;3047;42.600;23.470;2022-11-09T13:26:00;93552.69;;;16.30;78.77
6038;BME280;3047;42.600;23.470;2022-11-09T13:32:02;93547.41;;;16.14;79.52
6038;BME280;3047;42.600;23.470;2022-11-09T13:34:41;93551.22;;;16.04;79.94
6038;BME280;3047;42.600;23.470;2022-11-09T13:40:43;93554.03;;;15.77;81.42
6038;BME280;3047;42.600;23.470;2022-11-09T13:43:20;93541.81;;;15.64;80.95
6038;BME280;3047;42.600;23.470;2022-11-09T13:45:51;93547.81;;;15.63;81.46
6038;BME280;3047;42.600;23.470;2022-11-09T13:48:29;93545.00;;;15.48;82.35
6038;BME280;3047;42.600;23.470;2022-11-09T13:50:59;93548.75;;;15.40;82.76